Time;durP1;ratioP1;P1;durP2;ratioP2;P2;SDS_P1;SDS_P2;PMS_P1;PMS_P2;Temp;Humidity;BMP_temperature;BMP_pressure;BME280_temperature;BME280_humidity;BME280_pressure;Samples;Min_cycle;Max_cycle;Signal;HPM_P1;HPM_P2
2022/06/05 00:03:45;;;;;;;0.00;0.00;;;;;;;9.69;100.00;102238.50;10326521;28;20234;-71
2022/06/05 00:09:04;;;;;;;0.00;0.00;;;;;;;9.73;100.00;102225.78;10319468;28;20034;-70
2022/06/05 00:14:04;;;;;;;0.10;0.10;;;;;;;9.69;100.00;102221.69;10347939;28;20495;-69
2022/06/05 00:19:04;;;;;;;0.00;0.00;;;;;;;9.60;100.00;102219.72;10368243;28;20018;-70
2022/06/05 00:24:05;;;;;;;0.00;0.00;;;;;;;9.49;100.00;102209.94;10368038;28;20021;-70
2022/06/05 00:29:11;;;;;;;0.00;0.00;;;;;;;9.35;100.00;102204.81;10374649;28;20040;-71
2022/06/05 00:34:12;;;;;;;0.00;0.00;;;;;;;9.12;100.00;102201.25;10375435;28;20048;-71
2022/06/05 00:39:23;;;;;;;0.00;0.00;;;;;;;9.02;100.00;102196.63;10374469;28;20018;-71
2022/06/05 00:44:30;;;;;;;0.00;0.00;;;;;;;8.94;100.00;102192.84;10361663;28;20503;-71
2022/06/05 00:49:45;;;;;;;0.08;0.08;;;;;;;8.80;100.00;102188.56;10375040;28;20026;-71
2022/06/05 00:54:45;;;;;;;0.10;0.10;;;;;;;8.70;100.00;102188.41;10374295;28;20080;-71
2022/06/05 00:59:48;;;;;;;0.00;0.00;;;;;;;8.68;100.00;102202.75;10374238;28;20104;-72
2022/06/05 01:04:50;;;;;;;0.00;0.00;;;;;;;8.58;100.00;102191.94;10374199;28;20261;-70
2022/06/05 01:09:52;;;;;;;0.00;0.00;;;;;;;8.45;100.00;102188.50;10352807;28;20018;-71
2022/06/05 01:15:34;;;;;;;0.00;0.00;;;;;;;8.30;100.00;102179.81;10337162;28;20457;-72
2022/06/05 01:20:41;;;;;;;0.00;0.00;;;;;;;8.09;100.00;102158.34;10332759;28;20045;-71
2022/06/05 01:25:55;;;;;;;0.00;0.00;;;;;;;7.92;100.00;102160.38;10333264;28;20097;-71
2022/06/05 01:31:04;;;;;;;0.00;0.00;;;;;;;7.78;100.00;102162.31;10333378;28;20037;-71
2022/06/05 01:36:13;;;;;;;0.00;0.00;;;;;;;7.66;100.00;102158.72;10332211;28;20025;-72
2022/06/05 01:41:29;;;;;;;0.00;0.00;;;;;;;7.59;100.00;102146.84;10330162;28;20018;-72
2022/06/05 01:46:34;;;;;;;0.00;0.00;;;;;;;7.49;100.00;102141.34;10372045;28;20555;-72
2022/06/05 01:51:42;;;;;;;0.00;0.00;;;;;;;7.42;100.00;102134.78;10371510;28;20049;-72
2022/06/05 01:56:50;;;;;;;0.00;0.00;;;;;;;7.36;100.00;102137.81;10371794;28;20045;-71
2022/06/05 02:01:57;;;;;;;0.00;0.00;;;;;;;7.38;100.00;102133.28;10372152;28;20036;-72
2022/06/05 02:07:03;;;;;;;0.00;0.00;;;;;;;7.35;100.00;102137.00;10369985;28;20096;-72
2022/06/05 02:12:06;;;;;;;0.00;0.00;;;;;;;7.39;100.00;102129.69;10366862;28;20022;-71
2022/06/05 02:17:07;;;;;;;0.00;0.00;;;;;;;7.43;100.00;102121.41;10369665;28;20087;-71
2022/06/05 02:22:14;;;;;;;0.00;0.00;;;;;;;7.48;100.00;102115.78;10371614;28;20022;-71
2022/06/05 02:27:20;;;;;;;0.00;0.00;;;;;;;7.46;100.00;102104.44;10369065;28;20026;-70
2022/06/05 02:32:49;;;;;;;0.00;0.00;;;;;;;7.38;100.00;102109.41;10371136;28;20519;-71
2022/06/05 02:37:53;;;;;;;0.00;0.00;;;;;;;7.35;100.00;102117.59;10370421;28;20465;-71
2022/06/05 02:43:23;;;;;;;0.00;0.00;;;;;;;7.29;100.00;102118.84;10344530;28;20029;-72
2022/06/05 02:48:31;;;;;;;0.00;0.00;;;;;;;7.32;100.00;102108.03;10328112;28;20034;-71
2022/06/05 02:53:45;;;;;;;0.00;0.00;;;;;;;7.34;100.00;102108.78;10330222;28;20374;-71
2022/06/05 02:58:48;;;;;;;0.00;0.00;;;;;;;7.30;100.00;102109.09;10329335;28;20081;-72
2022/06/05 03:03:48;;;;;;;0.00;0.00;;;;;;;7.33;100.00;102108.88;10329092;28;20497;-72
2022/06/05 03:08:49;;;;;;;0.00;0.00;;;;;;;7.43;100.00;102117.91;10328897;28;20046;-71
2022/06/05 03:13:49;;;;;;;0.10;0.10;;;;;;;8.13;100.00;102120.00;10346229;28;20026;-71
2022/06/05 03:18:49;;;;;;;0.00;0.00;;;;;;;8.87;100.00;102109.22;10370050;28;20058;-71
2022/06/05 03:23:50;;;;;;;0.00;0.00;;;;;;;9.53;100.00;102103.16;10368792;28;20748;-72
2022/06/05 03:28:50;;;;;;;0.07;0.07;;;;;;;10.37;100.00;102110.66;10369328;28;20029;-70
2022/06/05 03:33:50;;;;;;;0.10;0.10;;;;;;;11.31;100.00;102111.59;10368553;28;20752;-71
2022/06/05 03:38:51;;;;;;;0.10;0.10;;;;;;;12.16;100.00;102119.25;10369068;28;20109;-71
2022/06/05 03:43:51;;;;;;;0.10;0.10;;;;;;;13.13;100.00;102121.91;10329983;28;20358;-71
2022/06/05 03:48:52;;;;;;;0.10;0.10;;;;;;;14.15;100.00;102107.66;10326951;28;20027;-72
2022/06/05 03:53:52;;;;;;;0.10;0.10;;;;;;;15.16;100.00;102108.22;10327770;28;20031;-72
2022/06/05 03:58:54;;;;;;;0.10;0.10;;;;;;;16.06;100.00;102115.88;10328008;28;20030;-73
2022/06/05 04:03:55;;;;;;;0.10;0.10;;;;;;;16.88;100.00;102116.00;10334582;28;20536;-72
2022/06/05 04:08:58;;;;;;;0.10;0.10;;;;;;;17.71;100.00;102114.75;10336019;28;20018;-72
2022/06/05 04:13:59;;;;;;;0.03;0.03;;;;;;;18.36;91.29;102116.31;10317908;28;20026;-72
2022/06/05 04:19:00;;;;;;;0.00;0.00;;;;;;;18.60;90.19;102112.59;10335421;28;20022;-72
2022/06/05 04:24:01;;;;;;;0.00;0.00;;;;;;;19.08;90.75;102110.47;10335004;28;20500;-73
2022/06/05 04:29:01;;;;;;;0.10;0.10;;;;;;;19.58;85.15;102103.53;10335054;28;20097;-73
2022/06/05 04:34:08;;;;;;;0.00;0.00;;;;;;;19.90;83.14;102095.03;10335566;28;20059;-73
2022/06/05 04:39:09;;;;;;;0.98;0.30;;;;;;;19.99;82.86;102082.22;10335464;28;20489;-73
2022/06/05 04:44:12;;;;;;;0.10;0.10;;;;;;;20.19;80.85;102078.88;10346398;28;20370;-72
2022/06/05 04:49:13;;;;;;;;;;;;;;;20.60;79.64;102071.00;10333826;28;20033;-73
2022/06/05 04:54:16;;;;;;;0.10;0.10;;;;;;;20.92;78.29;102074.16;10333644;28;19916;-73
2022/06/05 04:59:16;;;;;;;0.00;0.00;;;;;;;21.12;78.31;102055.31;10334130;28;20043;-72
2022/06/05 05:04:17;;;;;;;0.10;0.10;;;;;;;21.34;76.70;102058.78;10333288;28;20113;-73
2022/06/05 05:09:17;;;;;;;0.00;0.00;;;;;;;21.67;76.10;102050.81;10333829;28;20037;-73
2022/06/05 05:14:17;;;;;;;0.00;0.00;;;;;;;22.00;73.73;102053.63;10346686;28;20088;-73
2022/06/05 05:19:18;;;;;;;0.00;0.00;;;;;;;22.18;74.23;102044.94;10373892;28;20029;-72
2022/06/05 05:24:18;;;;;;;0.10;0.10;;;;;;;22.34;72.91;102049.09;10371975;28;20432;-73
2022/06/05 05:29:19;;;;;;;0.10;0.10;;;;;;;22.73;71.11;102045.56;10373343;28;20273;-73
2022/06/05 05:34:19;;;;;;;0.10;0.10;;;;;;;23.03;71.45;102058.72;10372783;28;20456;-73
2022/06/05 05:44:43;;;;;;;0.10;0.10;;;;;;;24.09;69.06;102022.09;10331243;28;20042;-72
2022/06/05 05:49:44;;;;;;;0.00;0.00;;;;;;;24.25;68.09;102020.72;10332508;28;20030;-72
2022/06/05 05:54:44;;;;;;;0.10;0.10;;;;;;;24.42;67.23;102021.00;10331463;28;20026;-73
2022/06/05 05:59:44;;;;;;;0.03;0.03;;;;;;;24.52;67.65;102019.47;10358960;22;20038;-72
2022/06/05 06:04:45;;;;;;;0.10;0.10;;;;;;;24.90;66.67;102025.78;10368478;28;20097;-72
2022/06/05 06:09:46;;;;;;;0.10;0.10;;;;;;;25.44;65.04;102024.16;10368016;28;20224;-73
2022/06/05 06:14:46;;;;;;;0.10;0.10;;;;;;;25.44;64.00;102021.44;10387074;28;20395;-72
2022/06/05 06:19:47;;;;;;;0.10;0.10;;;;;;;25.37;61.67;102026.97;10409980;28;20091;-72
2022/06/05 06:24:48;;;;;;;0.00;0.00;;;;;;;25.61;55.83;102035.28;10409235;28;20718;-73
2022/06/05 06:29:48;;;;;;;0.00;0.00;;;;;;;25.58;55.61;102041.19;10409264;28;20049;-72
2022/06/05 06:34:48;;;;;;;0.10;0.10;;;;;;;25.73;56.78;102031.53;10407261;28;20028;-73
2022/06/05 06:39:50;;;;;;;0.05;0.05;;;;;;;25.63;56.07;102031.25;10408751;28;20457;-73
2022/06/05 06:44:50;;;;;;;0.10;0.10;;;;;;;25.36;57.71;102032.66;10386715;28;20032;-73
2022/06/05 06:49:50;;;;;;;0.10;0.10;;;;;;;25.16;54.47;102013.81;10407028;28;20021;-73
2022/06/05 06:54:53;;;;;;;0.05;0.05;;;;;;;24.79;58.73;102025.50;10407895;28;20025;-74
2022/06/05 06:59:55;;;;;;;0.00;0.00;;;;;;;24.95;58.75;102029.50;10408562;28;20124;-72
2022/06/05 07:04:55;;;;;;;0.10;0.10;;;;;;;25.52;52.93;102011.03;10407025;28;20021;-74
2022/06/05 07:09:55;;;;;;;0.10;0.10;;;;;;;25.60;53.52;102001.72;10406460;28;20029;-74
2022/06/05 07:14:55;;;;;;;0.10;0.10;;;;;;;25.11;54.24;102014.47;10403516;28;20025;-74
2022/06/05 07:19:56;;;;;;;0.10;0.10;;;;;;;24.98;55.95;101987.34;10407802;28;20521;-74
2022/06/05 07:24:57;;;;;;;0.00;0.00;;;;;;;25.02;57.62;101996.75;10406971;28;20036;-72
2022/06/05 07:29:57;;;;;;;0.10;0.10;;;;;;;25.34;53.97;101980.22;10407247;28;20036;-72
2022/06/05 07:34:57;;;;;;;0.10;0.10;;;;;;;25.39;53.67;101974.91;10406706;28;20032;-73
2022/06/05 07:39:58;;;;;;;0.10;0.10;;;;;;;25.08;53.06;101974.03;10406751;28;20025;-74
2022/06/05 07:45:00;;;;;;;0.10;0.10;;;;;;;24.75;54.54;101974.41;10365121;28;20026;-74
2022/06/05 07:50:01;;;;;;;0.00;0.00;;;;;;;24.51;54.79;101971.50;10366284;28;20129;-74
2022/06/05 07:55:01;;;;;;;0.08;0.08;;;;;;;25.03;60.17;101965.69;10365242;28;20129;-74
2022/06/05 08:00:05;;;;;;;0.10;0.10;;;;;;;24.91;55.66;101953.91;10365534;28;20100;-74
2022/06/05 08:05:06;;;;;;;0.00;0.00;;;;;;;24.45;56.01;101957.94;10365123;28;20025;-73
2022/06/05 08:10:07;;;;;;;0.10;0.10;;;;;;;24.35;56.83;101955.72;10363780;28;20026;-73
2022/06/05 08:15:12;;;;;;;0.00;0.00;;;;;;;24.50;58.03;101952.66;10373030;28;20415;-73
2022/06/05 08:20:12;;;;;;;0.00;0.00;;;;;;;24.15;58.26;101934.94;10365883;28;20026;-73
2022/06/05 08:25:14;;;;;;;0.10;0.10;;;;;;;23.99;56.32;101948.25;10364701;28;20026;-72
2022/06/05 08:30:14;;;;;;;0.00;0.00;;;;;;;23.76;55.49;101941.50;10364693;28;20397;-74
2022/06/05 08:35:15;;;;;;;0.00;0.00;;;;;;;24.25;55.71;101937.13;10363619;28;20022;-75
2022/06/05 08:45:51;;;;;;;0.00;0.00;;;;;;;25.01;48.82;101938.66;10404924;28;20164;-73
2022/06/05 08:50:57;;;;;;;0.10;0.10;;;;;;;25.26;47.46;101930.41;10414002;28;20396;-74
2022/06/05 08:55:59;;;;;;;0.00;0.00;;;;;;;25.24;47.52;101943.44;10413041;28;20130;-74
2022/06/05 09:01:04;;;;;;;0.00;0.00;;;;;;;25.01;47.08;101922.31;10412662;28;20033;-74
2022/06/05 09:06:12;;;;;;;0.00;0.00;;;;;;;24.51;51.43;101911.56;10412451;28;20104;-74
2022/06/05 09:11:18;;;;;;;0.03;0.03;;;;;;;24.64;56.48;101905.16;10398827;28;20030;-73
2022/06/05 09:16:27;;;;;;;0.00;0.00;;;;;;;24.66;53.70;101903.03;10403690;28;20029;-73
2022/06/05 09:21:36;;;;;;;0.10;0.10;;;;;;;24.69;54.33;101897.13;10411519;28;20109;-74
2022/06/05 09:26:58;;;;;;;0.00;0.00;;;;;;;24.39;51.49;101876.06;10410439;28;20025;-74
2022/06/05 09:32:19;;;;;;;0.10;0.10;;;;;;;24.22;53.53;101869.53;10410845;28;20026;-74
2022/06/05 09:37:27;;;;;;;0.00;0.00;;;;;;;24.12;58.82;101861.88;10409360;28;20405;-74
2022/06/05 09:42:42;;;;;;;0.00;0.00;;;;;;;23.85;52.56;101842.28;10389124;28;20030;-74
2022/06/05 09:47:53;;;;;;;0.00;0.00;;;;;;;23.92;55.81;101823.97;10369439;28;20475;-74
2022/06/05 09:52:53;;;;;;;0.00;0.00;;;;;;;23.21;58.83;101824.28;10369482;28;20026;-74
2022/06/05 09:58:27;;;;;;;0.00;0.00;;;;;;;22.92;59.38;101807.53;10367737;28;20049;-75
2022/06/05 10:03:43;;;;;;;0.00;0.00;;;;;;;22.88;62.98;101773.69;10369225;28;20030;-74
2022/06/05 10:08:47;;;;;;;0.00;0.00;;;;;;;22.75;60.33;101771.06;10369091;28;20115;-74
2022/06/05 10:14:04;;;;;;;0.00;0.00;;;;;;;22.69;61.87;101790.91;10379393;28;20059;-75
2022/06/05 10:19:10;;;;;;;0.00;0.00;;;;;;;22.94;64.49;101789.09;10409698;28;20028;-75
2022/06/05 10:24:20;;;;;;;0.10;0.10;;;;;;;23.47;56.73;101783.34;10408655;28;20033;-74
2022/06/05 10:29:25;;;;;;;0.00;0.00;;;;;;;23.72;56.21;101779.81;10408701;28;20622;-74
2022/06/05 10:34:34;;;;;;;0.10;0.10;;;;;;;23.92;52.60;101782.34;10408567;28;20089;-75
2022/06/05 10:39:50;;;;;;;0.00;0.00;;;;;;;24.30;54.05;101779.41;10408939;28;20530;-74
2022/06/05 10:45:06;;;;;;;0.00;0.00;;;;;;;24.16;54.47;101773.28;10365388;28;20034;-75
2022/06/05 10:50:08;;;;;;;0.10;0.10;;;;;;;24.07;55.26;101762.91;10368199;28;20041;-75
2022/06/05 10:55:18;;;;;;;0.00;0.00;;;;;;;23.87;58.01;101754.97;10365822;28;20538;-74
2022/06/05 11:00:32;;;;;;;0.00;0.00;;;;;;;23.89;56.80;101744.69;10365359;28;20426;-74
2022/06/05 11:05:54;;;;;;;0.03;0.03;;;;;;;24.18;53.16;101743.13;10366913;28;20026;-74
2022/06/05 11:16:59;;;;;;;0.05;0.05;;;;;;;23.78;56.65;101748.97;10310181;28;20034;-72
2022/06/05 11:22:04;;;;;;;0.00;0.00;;;;;;;24.02;56.55;101744.53;10326173;28;20374;-74
2022/06/05 11:27:33;;;;;;;0.10;0.10;;;;;;;24.16;57.20;101751.50;10325103;28;20114;-75
2022/06/05 11:33:01;;;;;;;0.00;0.00;;;;;;;24.29;56.84;101742.34;10316519;28;20070;-74
2022/06/05 11:38:21;;;;;;;0.00;0.00;;;;;;;24.24;54.03;101725.03;10323931;28;20108;-75
2022/06/05 11:43:30;;;;;;;0.03;0.03;;;;;;;24.05;56.90;101716.88;10378448;28;20048;-74
2022/06/05 11:48:38;;;;;;;0.10;0.10;;;;;;;24.23;50.22;101717.91;10406588;28;20032;-75
2022/06/05 11:54:09;;;;;;;0.00;0.00;;;;;;;24.25;53.70;101708.47;10406558;28;20033;-75
2022/06/05 11:59:24;;;;;;;0.00;0.00;;;;;;;24.47;53.69;101681.63;10412200;22;20077;-74
2022/06/05 12:04:41;;;;;;;0.00;0.00;;;;;;;24.66;54.60;101676.94;10367516;28;20029;-73
2022/06/05 12:09:48;;;;;;;0.00;0.00;;;;;;;24.62;52.32;101657.50;10368439;28;20535;-73
2022/06/05 12:15:13;;;;;;;0.00;0.00;;;;;;;24.07;52.55;101654.88;10388844;28;20487;-73
2022/06/05 12:20:39;;;;;;;0.00;0.00;;;;;;;23.84;57.68;101652.88;10409326;28;20034;-72
2022/06/05 12:25:50;;;;;;;0.00;0.00;;;;;;;24.07;59.79;101654.06;10414734;28;20482;-75
2022/06/05 12:30:57;;;;;;;0.00;0.00;;;;;;;24.26;58.02;101641.22;10416829;28;20036;-75
2022/06/05 12:36:21;;;;;;;0.00;0.00;;;;;;;24.32;53.17;101630.28;10415751;28;20025;-74
2022/06/05 12:41:25;;;;;;;0.00;0.00;;;;;;;24.39;62.06;101632.91;10388035;28;20054;-75
2022/06/05 12:46:45;;;;;;;0.00;0.00;;;;;;;24.16;61.84;101636.34;10373536;28;20057;-75
2022/06/05 12:52:02;;;;;;;0.10;0.10;;;;;;;24.13;60.73;101625.94;10375445;28;20116;-75
2022/06/05 12:57:08;;;;;;;0.00;0.00;;;;;;;24.18;61.40;101609.75;10372950;28;20049;-74
2022/06/05 13:02:31;;;;;;;0.10;0.10;;;;;;;24.08;56.72;101606.72;10375058;28;20061;-75
2022/06/05 13:07:44;;;;;;;0.00;0.00;;;;;;;24.02;52.22;101584.00;10374182;28;20032;-74
2022/06/05 13:13:14;;;;;;;0.00;0.00;;;;;;;24.00;59.97;101577.97;10388272;28;20029;-75
2022/06/05 13:18:32;;;;;;;0.00;0.00;;;;;;;24.04;57.76;101556.56;10415401;28;20365;-75
2022/06/05 13:23:42;;;;;;;0.00;0.00;;;;;;;24.03;54.38;101557.59;10415781;28;20033;-75
2022/06/05 13:29:10;;;;;;;0.00;0.00;;;;;;;24.04;56.33;101543.78;10414730;28;20048;-74
2022/06/05 13:34:22;;;;;;;0.00;0.00;;;;;;;24.03;58.99;101535.84;10413584;28;20026;-75
2022/06/05 13:39:29;;;;;;;0.00;0.00;;;;;;;23.96;56.01;101527.78;10414634;28;20026;-75
2022/06/05 13:44:33;;;;;;;0.10;0.10;;;;;;;23.68;54.41;101531.06;10406878;28;20400;-75
2022/06/05 13:49:43;;;;;;;0.00;0.00;;;;;;;23.62;60.43;101519.22;10413959;28;20032;-75
2022/06/05 13:55:02;;;;;;;0.00;0.00;;;;;;;23.57;60.09;101497.31;10413103;28;20541;-75
2022/06/05 14:00:23;;;;;;;0.00;0.00;;;;;;;23.44;55.32;101498.28;10413224;28;20451;-75
2022/06/05 14:05:33;;;;;;;0.10;0.10;;;;;;;23.41;56.47;101493.31;10412549;28;20383;-75
2022/06/05 14:11:06;;;;;;;0.00;0.00;;;;;;;23.30;54.82;101485.97;10411704;28;20053;-75
2022/06/05 14:16:08;;;;;;;0.00;0.00;;;;;;;23.31;57.29;101473.19;10370203;28;20389;-75
2022/06/05 14:21:19;;;;;;;0.00;0.00;;;;;;;23.31;58.25;101475.91;10372094;28;20382;-74
2022/06/05 14:26:39;;;;;;;0.00;0.00;;;;;;;23.38;61.92;101477.47;10370301;28;20030;-74
2022/06/05 14:31:40;;;;;;;0.00;0.00;;;;;;;23.30;56.67;101471.50;10371351;28;20109;-74
2022/06/05 14:36:44;;;;;;;0.10;0.10;;;;;;;23.30;56.98;101466.06;10369671;28;20448;-74
2022/06/05 14:42:01;;;;;;;0.00;0.00;;;;;;;23.32;61.18;101461.25;10369235;28;20026;-74
2022/06/05 14:47:12;;;;;;;0.05;0.05;;;;;;;23.12;56.11;101461.47;10368102;28;20494;-74
2022/06/05 14:52:12;;;;;;;0.00;0.00;;;;;;;23.07;57.41;101464.91;10370623;28;20546;-74
2022/06/05 15:02:44;;;;;;;0.10;0.10;;;;;;;22.95;58.21;101458.53;10370723;28;20045;-74
2022/06/05 15:07:52;;;;;;;0.10;0.10;;;;;;;22.91;56.18;101458.13;10369038;28;20105;-72
2022/06/05 15:13:02;;;;;;;0.00;0.00;;;;;;;22.86;57.39;101454.44;10369693;28;20022;-75
2022/06/05 15:18:03;;;;;;;0.00;0.00;;;;;;;22.79;59.74;101447.19;10368705;28;20025;-73
2022/06/05 15:23:15;;;;;;;0.00;0.00;;;;;;;22.68;59.17;101438.97;10369312;28;20048;-74
2022/06/05 15:28:29;;;;;;;0.10;0.10;;;;;;;22.52;62.30;101441.22;10368831;28;20378;-74
2022/06/05 15:33:29;;;;;;;0.00;0.00;;;;;;;22.31;64.54;101434.31;10369815;28;20265;-74
2022/06/05 15:39:12;;;;;;;0.00;0.00;;;;;;;22.07;70.11;101432.38;10367049;28;20481;-73
2022/06/05 15:44:37;;;;;;;0.00;0.00;;;;;;;21.90;72.53;101435.66;10356538;28;20034;-74
2022/06/05 15:49:37;;;;;;;0.00;0.00;;;;;;;21.67;74.21;101416.38;10366573;28;20366;-74
2022/06/05 15:55:02;;;;;;;0.10;0.10;;;;;;;21.51;74.64;101416.91;10367832;28;20022;-74
2022/06/05 16:00:13;;;;;;;0.00;0.00;;;;;;;21.35;74.56;101402.78;10374487;28;20022;-74
2022/06/05 16:05:29;;;;;;;0.10;0.10;;;;;;;21.29;75.03;101397.38;10374950;28;20481;-74
2022/06/05 16:10:38;;;;;;;0.00;0.00;;;;;;;21.22;72.63;101405.56;10376668;28;20025;-74
2022/06/05 16:16:18;;;;;;;0.10;0.10;;;;;;;21.08;76.61;101402.06;10391719;28;20116;-74
2022/06/05 16:21:38;;;;;;;0.00;0.00;;;;;;;20.87;75.07;101399.66;10417073;28;20025;-74
2022/06/05 16:27:00;;;;;;;0.10;0.10;;;;;;;20.70;80.11;101389.28;10416009;28;20033;-73
2022/06/05 16:32:03;;;;;;;0.00;0.00;;;;;;;20.52;83.07;101381.84;10416737;28;20053;-73
2022/06/05 16:42:36;;;;;;;0.10;0.10;;;;;;;20.21;83.69;101382.47;10395559;28;20484;-73
2022/06/05 16:47:53;;;;;;;0.10;0.10;;;;;;;20.08;82.08;101379.78;10374350;28;20464;-73
2022/06/05 16:52:56;;;;;;;0.10;0.10;;;;;;;19.98;84.51;101384.75;10375449;28;20473;-73
2022/06/05 16:58:23;;;;;;;0.00;0.00;;;;;;;19.88;86.41;101386.00;10373869;28;20029;-73
2022/06/05 17:03:35;;;;;;;0.03;0.03;;;;;;;19.75;82.78;101388.72;10374961;28;20384;-73
2022/06/05 17:08:46;;;;;;;0.00;0.00;;;;;;;19.64;83.96;101383.88;10372789;28;20030;-73
2022/06/05 17:13:47;;;;;;;0.10;0.10;;;;;;;19.51;82.19;101367.63;10368274;28;20076;-73
2022/06/05 17:18:58;;;;;;;0.00;0.00;;;;;;;19.41;82.27;101358.06;10374041;28;20095;-73
2022/06/05 17:24:18;;;;;;;0.10;0.10;;;;;;;19.32;83.03;101351.19;10371772;28;20025;-73
2022/06/05 17:29:32;;;;;;;0.10;0.10;;;;;;;19.22;81.78;101354.25;10372235;28;20017;-73
2022/06/05 17:34:41;;;;;;;0.10;0.10;;;;;;;19.11;82.98;101341.38;10372779;28;20034;-73
2022/06/05 17:40:20;;;;;;;0.10;0.10;;;;;;;18.99;81.46;101342.97;10373495;28;20030;-73
2022/06/05 17:45:32;;;;;;;0.00;0.00;;;;;;;18.89;84.43;101335.25;10246649;29;20043;-73
2022/06/05 17:50:39;;;;;;;0.10;0.10;;;;;;;18.80;83.80;101320.28;10356224;28;20121;-73
2022/06/05 17:55:41;;;;;;;0.00;0.00;;;;;;;18.75;85.18;101309.25;10372062;28;20469;-73
2022/06/05 18:00:52;;;;;;;0.10;0.10;;;;;;;18.67;85.69;101314.78;10384871;22;20037;-74
2022/06/05 18:06:00;;;;;;;0.10;0.10;;;;;;;18.61;85.82;101307.50;10367799;28;20018;-74
2022/06/05 18:11:07;;;;;;;0.00;0.00;;;;;;;18.56;86.86;101300.03;10368459;28;20423;-74
2022/06/05 18:16:16;;;;;;;0.08;0.08;;;;;;;18.44;89.20;101305.16;10360740;28;20587;-73
2022/06/05 18:21:35;;;;;;;0.10;0.10;;;;;;;18.32;88.76;101295.94;10377260;28;20029;-74
2022/06/05 18:26:55;;;;;;;0.10;0.10;;;;;;;18.17;91.65;101279.06;10380599;28;20026;-72
2022/06/05 18:32:05;;;;;;;0.10;0.10;;;;;;;17.97;95.04;101279.75;10368197;28;20421;-72
2022/06/05 18:42:38;;;;;;;0.10;0.10;;;;;;;17.70;95.08;101270.59;10368301;28;20038;-73
2022/06/05 18:47:44;;;;;;;0.00;0.00;;;;;;;17.63;95.34;101262.47;10366152;28;20017;-73
2022/06/05 18:52:45;;;;;;;0.10;0.10;;;;;;;17.57;95.55;101263.28;10364569;28;20349;-73
2022/06/05 18:57:45;;;;;;;0.10;0.10;;;;;;;17.49;95.54;101260.69;10377333;28;20506;-72
2022/06/05 19:02:54;;;;;;;0.10;0.10;;;;;;;17.45;96.52;101254.03;10366527;28;20042;-73
2022/06/05 19:07:55;;;;;;;0.00;0.00;;;;;;;17.35;97.62;101248.16;10364500;28;20111;-73
2022/06/05 19:13:01;;;;;;;0.10;0.10;;;;;;;17.31;96.82;101244.19;10364892;28;20108;-73
2022/06/05 19:18:13;;;;;;;0.10;0.10;;;;;;;17.30;96.18;101247.88;10365704;28;20034;-73
2022/06/05 19:23:23;;;;;;;0.10;0.10;;;;;;;17.26;97.33;101246.63;10359548;28;20026;-73
2022/06/05 19:28:41;;;;;;;0.10;0.10;;;;;;;17.20;97.24;101238.28;10365406;28;20109;-72
2022/06/05 19:33:41;;;;;;;0.10;0.10;;;;;;;17.20;96.53;101234.75;10364273;28;20032;-72
2022/06/05 19:38:53;;;;;;;0.10;0.10;;;;;;;17.16;96.46;101231.63;10365642;28;20539;-72
2022/06/05 19:44:10;;;;;;;0.10;0.10;;;;;;;17.14;96.53;101230.97;10365125;28;20061;-73
2022/06/05 19:49:16;;;;;;;0.10;0.10;;;;;;;17.13;96.30;101220.41;10364004;28;20151;-72
2022/06/05 19:54:37;;;;;;;0.10;0.10;;;;;;;17.12;94.23;101218.72;10359571;28;20022;-73
2022/06/05 19:59:38;;;;;;;0.10;0.10;;;;;;;17.15;94.26;101223.72;10404730;28;20025;-73
2022/06/05 20:04:47;;;;;;;0.10;0.10;;;;;;;17.14;94.38;101224.78;10405499;28;20548;-73
2022/06/05 20:09:58;;;;;;;0.10;0.10;;;;;;;17.10;93.94;101216.22;10404637;28;20061;-73
2022/06/05 20:15:09;;;;;;;0.10;0.10;;;;;;;17.15;92.16;101208.41;10405412;28;20561;-73
2022/06/05 20:20:09;;;;;;;0.10;0.10;;;;;;;17.21;91.24;101204.13;10404853;28;20480;-73
2022/06/05 20:25:21;;;;;;;0.10;0.10;;;;;;;17.26;90.24;101217.00;10404878;28;20037;-73
2022/06/05 20:30:26;;;;;;;0.00;0.00;;;;;;;17.31;90.58;101231.56;10405696;28;20041;-72
2022/06/05 20:35:27;;;;;;;0.05;0.05;;;;;;;17.25;93.10;101223.41;10405835;28;20478;-73
2022/06/05 20:40:37;;;;;;;0.00;0.00;;;;;;;17.06;99.02;101184.53;10405689;28;20155;-73
2022/06/05 20:45:43;;;;;;;0.10;0.10;;;;;;;16.81;100.00;101184.06;10411335;28;20032;-74
2022/06/05 20:50:57;;;;;;;0.10;0.10;;;;;;;16.60;100.00;101176.78;10413370;28;20018;-73
2022/06/05 20:56:03;;;;;;;0.10;0.10;;;;;;;16.48;100.00;101176.44;10373454;28;20022;-74
2022/06/05 21:01:07;;;;;;;0.10;0.10;;;;;;;16.41;100.00;101180.94;10371422;28;20480;-73
2022/06/05 21:16:57;;;;;;;0.10;0.10;;;;;;;16.14;100.00;101172.50;10371452;28;20026;-73
2022/06/05 21:22:00;;;;;;;0.08;0.08;;;;;;;16.07;100.00;101166.22;10371315;28;20057;-72
2022/06/05 21:27:20;;;;;;;0.10;0.10;;;;;;;15.99;100.00;101174.38;10393682;28;20093;-73
2022/06/05 21:32:41;;;;;;;0.10;0.10;;;;;;;15.93;100.00;101172.44;10411863;28;20033;-73
2022/06/05 21:37:44;;;;;;;0.10;0.10;;;;;;;15.86;100.00;101172.38;10411238;28;20517;-74
2022/06/05 21:42:48;;;;;;;0.10;0.10;;;;;;;15.82;100.00;101177.28;10410093;28;20463;-74
2022/06/05 21:47:50;;;;;;;0.10;0.10;;;;;;;15.77;100.00;101178.84;10411071;28;20551;-74
2022/06/05 21:52:53;;;;;;;0.10;0.10;;;;;;;15.73;100.00;101175.69;10391431;28;20527;-73
2022/06/05 21:58:03;;;;;;;0.10;0.10;;;;;;;15.70;100.00;101162.63;10368699;28;20413;-73
2022/06/05 22:03:06;;;;;;;0.03;0.03;;;;;;;15.68;100.00;101163.81;10368408;28;20025;-73
2022/06/05 22:08:08;;;;;;;0.10;0.10;;;;;;;15.65;100.00;101159.66;10368858;28;20025;-73
2022/06/05 22:13:13;;;;;;;0.10;0.10;;;;;;;15.64;100.00;101136.47;10367924;28;20053;-73
2022/06/05 22:18:13;;;;;;;0.10;0.10;;;;;;;15.64;100.00;101136.47;10367501;28;20057;-71
2022/06/05 22:23:14;;;;;;;0.10;0.10;;;;;;;15.59;100.00;101131.69;10371430;28;20033;-70
2022/06/05 22:28:15;;;;;;;0.10;0.10;;;;;;;15.55;100.00;101108.06;10374978;28;20075;-73
2022/06/05 22:33:15;;;;;;;0.10;0.10;;;;;;;15.54;100.00;101109.09;10368584;28;20022;-73
2022/06/05 22:38:17;;;;;;;0.10;0.10;;;;;;;15.54;100.00;101106.41;10367932;28;20376;-73
2022/06/05 22:43:17;;;;;;;0.10;0.10;;;;;;;15.55;100.00;101086.56;10367937;28;20026;-73
2022/06/05 22:48:17;;;;;;;0.10;0.10;;;;;;;15.56;100.00;101082.88;10367254;28;20033;-73
2022/06/05 22:53:18;;;;;;;0.10;0.10;;;;;;;15.56;100.00;101074.81;10368844;28;20128;-73
2022/06/05 22:58:19;;;;;;;0.10;0.10;;;;;;;15.56;100.00;101064.94;10373617;28;20112;-73
2022/06/05 23:03:21;;;;;;;0.10;0.10;;;;;;;15.52;100.00;101060.94;10367416;28;20029;-73
2022/06/05 23:08:21;;;;;;;0.10;0.10;;;;;;;15.49;100.00;101060.47;10366577;28;20025;-73
2022/06/05 23:13:22;;;;;;;0.10;0.10;;;;;;;15.37;100.00;101047.50;10366943;28;20077;-73
2022/06/05 23:18:22;;;;;;;0.10;0.10;;;;;;;15.31;100.00;101045.56;10365943;28;20026;-73
2022/06/05 23:23:22;;;;;;;0.10;0.10;;;;;;;15.30;100.00;101059.16;10376223;28;20120;-73
2022/06/05 23:28:23;;;;;;;0.10;0.10;;;;;;;15.30;100.00;101057.34;10406685;28;20288;-73
2022/06/05 23:33:23;;;;;;;0.10;0.10;;;;;;;15.34;100.00;101039.84;10407035;28;20029;-73
2022/06/05 23:38:24;;;;;;;0.10;0.10;;;;;;;15.35;100.00;101025.38;10407316;28;20016;-73
2022/06/05 23:43:24;;;;;;;0.10;0.10;;;;;;;15.36;100.00;101045.84;10405511;28;20216;-73
2022/06/05 23:48:25;;;;;;;0.00;0.00;;;;;;;15.36;100.00;101027.06;10406680;28;20028;-72
2022/06/05 23:53:26;;;;;;;0.10;0.10;;;;;;;15.33;100.00;101042.69;10375719;28;20378;-72
2022/06/05 23:58:27;;;;;;;0.10;0.10;;;;;;;15.35;100.00;101033.44;10365424;28;20052;-73
